createdAt,value
2023-04-26T00:01:05.597Z,66.15
2023-04-26T00:03:34.563Z,65.65
2023-04-26T00:06:05.545Z,65.32
2023-04-26T00:08:33.067Z,65.88
2023-04-26T00:11:00.758Z,66.38
2023-04-26T00:13:28.641Z,67.01
2023-04-26T00:15:56.178Z,67.16
2023-04-26T00:18:23.705Z,67.24
2023-04-26T00:20:52.659Z,67.60
2023-04-26T00:23:20.218Z,67.41
2023-04-26T00:25:47.712Z,67.63
2023-04-26T00:28:15.858Z,67.60
2023-04-26T00:30:47.685Z,68.25
2023-04-26T00:33:15.386Z,67.79
2023-04-26T00:35:43.237Z,68.58
2023-04-26T00:38:12.051Z,68.88
2023-04-26T00:40:39.549Z,69.38
2023-04-26T00:43:07.079Z,69.94
2023-04-26T00:45:35.511Z,70.50
2023-04-26T00:48:04.087Z,70.75
2023-04-26T00:50:32.365Z,70.24
2023-04-26T00:53:00.108Z,70.30
2023-04-26T00:55:28.989Z,70.45
2023-04-26T00:57:56.661Z,70.91
2023-04-26T01:00:24.323Z,70.52
2023-04-26T01:02:52.197Z,71.20
2023-04-26T01:05:20.661Z,70.94
2023-04-26T01:07:48.466Z,71.79
2023-04-26T01:10:16.327Z,72.62
2023-04-26T01:12:45.249Z,71.64
2023-04-26T01:15:12.872Z,71.33
2023-04-26T01:17:40.575Z,71.33
2023-04-26T01:20:10.441Z,71.71
2023-04-26T01:22:39.321Z,71.44
2023-04-26T01:25:09.004Z,70.86
2023-04-26T01:27:36.893Z,71.28
2023-04-26T01:30:04.645Z,71.57
2023-04-26T01:32:32.182Z,71.34
2023-04-26T01:35:00.647Z,71.50
2023-04-26T01:37:28.220Z,72.17
2023-04-26T01:39:57.030Z,72.33
2023-04-26T01:42:24.526Z,72.60
2023-04-26T01:44:52.025Z,72.31
2023-04-26T01:47:19.570Z,72.30
2023-04-26T01:49:47.134Z,73.11
2023-04-26T01:52:14.665Z,72.92
2023-04-26T01:54:42.178Z,73.30
2023-04-26T01:57:11.036Z,73.39
2023-04-26T01:59:38.579Z,72.58
2023-04-26T02:02:06.868Z,72.42
2023-04-26T02:04:34.561Z,73.14
2023-04-26T02:07:02.135Z,73.52
2023-04-26T02:09:29.598Z,73.49
2023-04-26T02:11:57.274Z,74.09
2023-04-26T02:14:28.207Z,74.00
2023-04-26T02:16:57.069Z,73.94
2023-04-26T02:19:24.696Z,74.48
2023-04-26T02:21:53.690Z,73.70
2023-04-26T02:24:21.596Z,74.71
2023-04-26T02:26:49.113Z,73.95
2023-04-26T02:29:16.629Z,74.40
2023-04-26T02:31:45.546Z,73.91
2023-04-26T02:34:13.315Z,73.99
2023-04-26T02:36:41.077Z,73.95
2023-04-26T02:39:08.766Z,74.62
2023-04-26T02:41:36.920Z,74.87
2023-04-26T02:44:04.533Z,74.51
2023-04-26T02:46:32.944Z,73.78
2023-04-26T02:49:02.135Z,74.16
2023-04-26T02:51:29.718Z,73.81
2023-04-26T02:53:57.288Z,73.34
2023-04-26T02:56:25.546Z,74.15
2023-04-26T02:58:55.360Z,74.18
2023-04-26T03:01:22.999Z,73.94
2023-04-26T03:03:50.985Z,73.61
2023-04-26T03:06:19.913Z,73.53
2023-04-26T03:08:47.441Z,74.49
2023-04-26T03:11:14.933Z,73.32
2023-04-26T03:13:42.772Z,73.23
2023-04-26T03:16:11.088Z,74.25
2023-04-26T03:18:38.617Z,74.39
2023-04-26T03:21:07.657Z,74.55
2023-04-26T03:23:37.108Z,74.22
2023-04-26T03:26:05.356Z,74.05
2023-04-26T03:28:32.886Z,74.88
2023-04-26T03:31:00.747Z,74.50
2023-04-26T03:33:29.234Z,74.94
2023-04-26T03:35:56.838Z,74.02
2023-04-26T03:38:24.980Z,75.00
2023-04-26T03:40:53.967Z,76.25
2023-04-26T03:43:21.692Z,76.66
2023-04-26T03:45:50.816Z,76.22
2023-04-26T03:48:18.334Z,76.80
2023-04-26T03:50:46.635Z,77.10
2023-04-26T03:53:14.134Z,77.39
2023-04-26T03:55:41.665Z,77.93
2023-04-26T03:58:11.421Z,78.04
2023-04-26T04:00:39.272Z,77.25
2023-04-26T04:03:07.853Z,76.93
2023-04-26T04:05:35.635Z,76.29
2023-04-26T04:08:04.264Z,76.83
2023-04-26T04:10:31.934Z,76.93
2023-04-26T04:13:00.099Z,77.01
2023-04-26T04:15:29.099Z,76.63
2023-04-26T04:17:56.793Z,76.55
2023-04-26T04:20:24.375Z,76.57
2023-04-26T04:22:55.276Z,76.60
2023-04-26T04:25:23.012Z,77.05
2023-04-26T04:27:51.905Z,77.11
2023-04-26T04:30:19.457Z,76.72
2023-04-26T04:32:48.315Z,76.82
2023-04-26T04:35:17.744Z,77.31
2023-04-26T04:37:45.523Z,77.30
2023-04-26T04:40:14.066Z,77.81
2023-04-26T04:42:46.646Z,77.92
2023-04-26T04:45:15.789Z,78.31
2023-04-26T04:47:44.003Z,77.70
2023-04-26T04:50:12.980Z,77.42
2023-04-26T04:52:40.893Z,77.67
2023-04-26T04:55:08.918Z,77.64
2023-04-26T04:57:39.326Z,77.64
2023-04-26T05:00:10.381Z,77.18
2023-04-26T05:02:43.885Z,78.28
2023-04-26T05:05:13.270Z,77.52
2023-04-26T05:07:41.572Z,77.10
2023-04-26T05:10:10.188Z,76.37
2023-04-26T05:12:38.100Z,76.37
2023-04-26T05:15:06.683Z,75.88
2023-04-26T05:17:34.967Z,75.98
2023-04-26T05:20:14.752Z,76.17
2023-04-26T05:22:42.483Z,76.24
2023-04-26T05:25:11.274Z,76.25
2023-04-26T05:27:39.878Z,76.16
2023-04-26T05:30:21.564Z,75.88
2023-04-26T05:33:15.320Z,75.29
2023-04-26T05:35:54.098Z,75.01
2023-04-26T05:38:22.856Z,75.14
2023-04-26T05:40:50.388Z,75.20
2023-04-26T05:43:18.443Z,74.82
2023-04-26T05:45:51.983Z,74.22
2023-04-26T05:48:21.238Z,74.19
2023-04-26T05:50:48.749Z,74.41
2023-04-26T05:53:17.708Z,74.62
2023-04-26T05:55:45.311Z,74.21
2023-04-26T05:58:13.104Z,74.56
2023-04-26T06:00:42.536Z,73.11
2023-04-26T06:03:10.883Z,73.17
2023-04-26T06:05:39.266Z,72.71
2023-04-26T06:08:07.045Z,72.27
2023-04-26T06:10:38.379Z,71.48
2023-04-26T06:13:07.083Z,70.44
2023-04-26T06:15:37.349Z,70.09
2023-04-26T06:18:05.719Z,69.80
2023-04-26T06:20:33.290Z,69.99
2023-04-26T06:23:00.857Z,68.93
2023-04-26T06:25:28.476Z,68.84
2023-04-26T06:27:59.403Z,66.77
2023-04-26T06:30:27.520Z,65.82
2023-04-26T06:32:55.492Z,65.92
2023-04-26T06:35:25.224Z,65.63
2023-04-26T06:37:53.352Z,67.03
2023-04-26T06:40:22.064Z,66.33
2023-04-26T06:42:49.775Z,66.71
2023-04-26T06:45:18.907Z,66.46
2023-04-26T06:47:47.054Z,66.49
2023-04-26T06:50:15.454Z,65.31
2023-04-26T06:52:42.983Z,64.75
2023-04-26T06:55:11.299Z,63.56
2023-04-26T06:57:38.843Z,62.77
2023-04-26T07:00:09.542Z,62.37
2023-04-26T07:02:38.545Z,62.21
2023-04-26T07:05:07.045Z,61.93
2023-04-26T07:07:34.918Z,61.00
2023-04-26T07:10:02.447Z,62.16
2023-04-26T07:12:29.919Z,61.99
2023-04-26T07:14:58.205Z,61.39
2023-04-26T07:17:25.695Z,60.07
2023-04-26T07:19:56.135Z,60.22
2023-04-26T07:22:23.808Z,60.06
2023-04-26T07:24:51.277Z,60.07
2023-04-26T07:27:18.776Z,58.86
2023-04-26T07:29:46.313Z,58.67
2023-04-26T07:32:14.061Z,58.57
2023-04-26T07:34:41.977Z,56.51
2023-04-26T07:37:10.800Z,58.96
2023-04-26T07:39:38.262Z,58.06
2023-04-26T07:42:05.865Z,58.79
2023-04-26T07:44:33.357Z,59.28
2023-04-26T07:47:00.865Z,59.90
2023-04-26T07:49:28.358Z,57.98
2023-04-26T07:51:58.084Z,57.69
2023-04-26T07:54:26.938Z,57.59
2023-04-26T07:56:54.526Z,56.98
2023-04-26T07:59:22.054Z,55.17
2023-04-26T08:01:49.883Z,55.22
2023-04-26T08:04:19.715Z,53.84
2023-04-26T08:06:48.638Z,53.10
2023-04-26T08:09:16.238Z,53.20
2023-04-26T08:11:45.040Z,53.00
2023-04-26T08:14:12.532Z,53.82
2023-04-26T08:16:40.519Z,54.17
2023-04-26T08:19:08.076Z,54.25
2023-04-26T08:21:35.733Z,55.07
2023-04-26T08:24:03.506Z,53.89
2023-04-26T08:26:31.040Z,54.17
2023-04-26T08:29:00.041Z,53.86
2023-04-26T08:31:27.655Z,54.58
2023-04-26T08:33:55.254Z,54.13
2023-04-26T08:36:22.894Z,54.06
2023-04-26T08:38:50.391Z,53.52
2023-04-26T08:41:22.450Z,53.66
2023-04-26T08:43:50.839Z,50.93
2023-04-26T08:46:20.971Z,50.65
2023-04-26T08:48:58.172Z,46.05
2023-04-26T08:51:26.053Z,45.16
2023-04-26T08:53:54.400Z,45.32
2023-04-26T08:56:23.727Z,45.24
2023-04-26T08:58:51.979Z,45.87
2023-04-26T09:01:21.588Z,45.09
2023-04-26T09:03:49.326Z,44.19
2023-04-26T09:06:17.370Z,44.13
2023-04-26T09:08:45.203Z,45.05
2023-04-26T09:11:12.807Z,45.19
2023-04-26T09:13:40.339Z,46.21
2023-04-26T09:16:08.506Z,46.37
2023-04-26T09:18:48.494Z,46.28
2023-04-26T09:21:18.981Z,47.34
2023-04-26T09:23:58.680Z,47.27
2023-04-26T09:26:26.452Z,45.74
2023-04-26T09:29:12.493Z,43.47
2023-04-26T09:31:42.097Z,44.14
2023-04-26T09:34:11.966Z,44.29
2023-04-26T09:36:50.095Z,45.44
2023-04-26T09:39:31.312Z,46.19
2023-04-26T09:41:59.180Z,47.25
2023-04-26T09:44:27.074Z,46.33
2023-04-26T09:47:01.878Z,47.11
2023-04-26T09:49:33.065Z,45.00
2023-04-26T09:52:01.757Z,44.69
2023-04-26T09:54:43.069Z,44.70
2023-04-26T09:57:10.791Z,45.49
2023-04-26T09:59:42.999Z,46.26
2023-04-26T10:02:14.824Z,46.55
2023-04-26T10:04:45.651Z,46.87
2023-04-26T10:07:13.910Z,45.98
2023-04-26T10:09:41.798Z,45.32
2023-04-26T10:12:10.455Z,44.63
2023-04-26T10:14:38.424Z,44.31
2023-04-26T10:17:06.449Z,43.23
2023-04-26T10:19:35.212Z,43.36
2023-04-26T10:22:06.279Z,43.61
2023-04-26T10:24:35.659Z,43.81
2023-04-26T10:27:04.203Z,44.59
2023-04-26T10:30:07.701Z,45.37
2023-04-26T10:33:16.504Z,45.86
2023-04-26T10:36:06.817Z,45.30
2023-04-26T10:38:35.289Z,43.71
2023-04-26T10:41:36.122Z,42.84
2023-04-26T10:44:42.275Z,40.07
2023-04-26T10:47:22.914Z,40.58
2023-04-26T10:49:50.645Z,41.31
2023-04-26T10:52:21.448Z,41.81
2023-04-26T10:54:56.811Z,41.91
2023-04-26T10:57:25.692Z,41.68
2023-04-26T11:00:20.863Z,41.51
2023-04-26T11:02:56.085Z,41.19
2023-04-26T11:05:39.428Z,41.06
2023-04-26T11:08:10.026Z,39.60
2023-04-26T11:10:40.976Z,39.85
2023-04-26T11:13:08.521Z,40.01
2023-04-26T11:15:36.450Z,40.71
2023-04-26T11:18:04.355Z,41.14
2023-04-26T11:20:32.719Z,40.98
2023-04-26T11:23:00.377Z,41.49
2023-04-26T11:25:30.020Z,40.98
2023-04-26T11:28:01.818Z,41.03
2023-04-26T11:30:31.629Z,41.50
2023-04-26T11:33:00.005Z,41.39
2023-04-26T11:35:29.556Z,40.82
2023-04-26T11:37:59.911Z,40.59
2023-04-26T11:40:32.935Z,39.92
2023-04-26T11:43:02.390Z,40.53
2023-04-26T11:45:29.910Z,40.45
2023-04-26T11:47:58.118Z,41.20
2023-04-26T11:50:27.437Z,41.76
2023-04-26T11:52:56.609Z,41.37
2023-04-26T11:55:30.515Z,41.58
2023-04-26T11:57:59.522Z,41.80
2023-04-26T12:00:27.405Z,42.36
2023-04-26T12:02:57.216Z,42.23
2023-04-26T12:05:26.391Z,41.53
2023-04-26T12:07:56.631Z,41.74
2023-04-26T12:10:27.024Z,41.61
2023-04-26T12:12:56.707Z,41.93
2023-04-26T12:15:26.857Z,41.90
2023-04-26T12:17:59.868Z,41.95
2023-04-26T12:20:32.620Z,41.91
2023-04-26T12:23:01.364Z,42.01
2023-04-26T12:25:29.104Z,42.87
2023-04-26T12:27:57.124Z,41.56
2023-04-26T12:30:26.701Z,42.09
2023-04-26T12:33:15.538Z,41.92
2023-04-26T12:35:44.964Z,42.24
2023-04-26T12:38:13.334Z,42.04
2023-04-26T12:40:41.771Z,42.09
2023-04-26T12:43:09.624Z,41.87
2023-04-26T12:45:38.488Z,42.31
2023-04-26T12:48:06.387Z,41.71
2023-04-26T12:50:34.106Z,42.00
2023-04-26T12:53:01.763Z,41.49
2023-04-26T12:55:31.265Z,41.83
2023-04-26T12:58:00.234Z,41.11
2023-04-26T13:00:27.793Z,40.63
2023-04-26T13:02:56.781Z,41.42
2023-04-26T13:05:25.386Z,41.39
2023-04-26T13:07:52.979Z,41.06
2023-04-26T13:10:20.478Z,41.50
2023-04-26T13:12:47.997Z,40.96
2023-04-26T13:15:16.874Z,41.74
2023-04-26T13:17:45.606Z,42.30
2023-04-26T13:20:14.821Z,41.89
2023-04-26T13:22:43.276Z,43.27
2023-04-26T13:25:11.048Z,43.46
2023-04-26T13:27:38.923Z,43.09
2023-04-26T13:30:08.734Z,43.36
2023-04-26T13:32:36.498Z,42.47
2023-04-26T13:35:04.253Z,42.79
2023-04-26T13:37:33.111Z,41.88
2023-04-26T13:40:02.805Z,41.60
2023-04-26T13:42:30.288Z,41.75
2023-04-26T13:44:57.762Z,41.52
2023-04-26T13:47:25.434Z,41.51
2023-04-26T13:49:52.941Z,41.75
2023-04-26T13:52:20.610Z,41.10
2023-04-26T13:54:49.451Z,41.46
2023-04-26T13:57:17.077Z,41.66
2023-04-26T13:59:44.542Z,41.78
2023-04-26T14:02:12.450Z,42.89
2023-04-26T14:04:40.764Z,43.03
2023-04-26T14:07:11.008Z,42.88
2023-04-26T14:09:38.551Z,42.57
2023-04-26T14:12:08.862Z,42.12
2023-04-26T14:14:36.989Z,41.47
2023-04-26T14:17:04.558Z,40.42
2023-04-26T14:19:32.094Z,39.99
2023-04-26T14:21:59.744Z,40.25
2023-04-26T14:24:27.263Z,40.18
2023-04-26T14:26:54.861Z,39.91
2023-04-26T14:29:23.749Z,40.48
2023-04-26T14:31:51.528Z,40.28
2023-04-26T14:34:19.420Z,40.33
2023-04-26T14:36:47.102Z,40.26
2023-04-26T14:39:15.115Z,40.32
2023-04-26T14:41:43.264Z,39.72
2023-04-26T14:44:10.885Z,39.85
2023-04-26T14:46:39.824Z,40.00
2023-04-26T14:49:07.352Z,40.53
2023-04-26T14:51:34.865Z,40.25
2023-04-26T14:54:02.385Z,41.37
2023-04-26T14:56:33.633Z,41.50
2023-04-26T14:59:01.835Z,41.05
2023-04-26T15:01:29.445Z,41.23
2023-04-26T15:04:00.600Z,41.26
2023-04-26T15:06:30.739Z,41.02
2023-04-26T15:08:58.405Z,41.01
2023-04-26T15:11:25.898Z,40.58
2023-04-26T15:13:53.634Z,40.63
2023-04-26T15:16:21.721Z,40.01
2023-04-26T15:18:49.367Z,40.29
2023-04-26T15:21:18.731Z,40.19
2023-04-26T15:23:46.515Z,40.02
2023-04-26T15:26:14.063Z,39.79
2023-04-26T15:28:42.580Z,39.92
2023-04-26T15:31:11.195Z,40.31
2023-04-26T15:33:38.758Z,40.27
2023-04-26T15:36:06.851Z,40.49
2023-04-26T15:38:36.138Z,40.10
2023-04-26T15:41:04.205Z,40.20
2023-04-26T15:43:31.689Z,40.16
2023-04-26T15:45:59.383Z,41.23
2023-04-26T15:48:27.005Z,41.31
2023-04-26T15:50:56.556Z,40.77
2023-04-26T15:53:24.296Z,41.04
2023-04-26T15:55:53.140Z,40.93
2023-04-26T15:58:20.611Z,41.29
2023-04-26T16:00:48.136Z,41.25
2023-04-26T16:03:15.776Z,41.23
2023-04-26T16:05:43.405Z,40.49
2023-04-26T16:08:10.930Z,40.77
2023-04-26T16:10:38.660Z,40.46
2023-04-26T16:13:07.847Z,40.41
2023-04-26T16:15:35.755Z,41.02
2023-04-26T16:18:03.386Z,41.19
2023-04-26T16:20:31.437Z,41.15
2023-04-26T16:22:58.933Z,41.73
2023-04-26T16:25:26.582Z,42.01
2023-04-26T16:27:54.067Z,41.97
2023-04-26T16:30:23.143Z,42.01
2023-04-26T16:32:50.654Z,42.30
2023-04-26T16:35:18.459Z,42.43
2023-04-26T16:37:46.585Z,42.40
2023-04-26T16:40:14.572Z,42.44
2023-04-26T16:42:43.428Z,42.72
2023-04-26T16:45:13.228Z,42.68
2023-04-26T16:47:43.656Z,42.50
2023-04-26T16:50:11.712Z,42.52
2023-04-26T16:52:39.430Z,42.08
2023-04-26T16:55:08.587Z,41.56
2023-04-26T16:57:36.196Z,41.39
2023-04-26T17:00:06.012Z,41.31
2023-04-26T17:02:33.602Z,41.80
2023-04-26T17:05:03.090Z,42.10
2023-04-26T17:07:30.700Z,41.88
2023-04-26T17:09:58.191Z,41.91
2023-04-26T17:12:25.974Z,42.34
2023-04-26T17:14:53.462Z,42.78
2023-04-26T17:17:20.927Z,42.72
2023-04-26T17:19:48.376Z,42.71
2023-04-26T17:22:17.225Z,42.77
2023-04-26T17:24:44.836Z,42.88
2023-04-26T17:27:12.308Z,43.00
2023-04-26T17:29:39.794Z,43.39
2023-04-26T17:32:07.561Z,43.55
2023-04-26T17:34:35.170Z,43.53
2023-04-26T17:37:02.632Z,43.47
2023-04-26T17:39:31.646Z,43.39
2023-04-26T17:41:59.116Z,43.81
2023-04-26T17:44:26.796Z,43.96
2023-04-26T17:46:54.272Z,44.25
2023-04-26T17:49:25.472Z,44.08
2023-04-26T17:51:53.040Z,44.18
2023-04-26T17:54:20.648Z,44.46
2023-04-26T17:56:49.548Z,44.94
2023-04-26T17:59:17.013Z,45.44
2023-04-26T18:01:44.684Z,46.04
2023-04-26T18:04:12.512Z,45.89
2023-04-26T18:06:40.691Z,46.37
2023-04-26T18:09:08.526Z,46.55
2023-04-26T18:11:36.178Z,46.48
2023-04-26T18:14:04.987Z,46.70
2023-04-26T18:16:32.859Z,46.32
2023-04-26T18:19:00.598Z,46.70
2023-04-26T18:21:29.514Z,46.79
2023-04-26T18:23:57.115Z,46.90
2023-04-26T18:26:24.686Z,47.22
2023-04-26T18:28:52.189Z,47.19
2023-04-26T18:31:22.148Z,47.12
2023-04-26T18:33:49.989Z,47.30
2023-04-26T18:36:17.767Z,47.55
2023-04-26T18:38:45.494Z,47.20
2023-04-26T18:41:12.972Z,47.64
2023-04-26T18:43:40.601Z,47.51
2023-04-26T18:46:08.111Z,47.50
2023-04-26T18:48:36.925Z,47.80
2023-04-26T18:51:04.764Z,48.05
2023-04-26T18:53:32.262Z,47.90
2023-04-26T18:55:59.892Z,48.06
2023-04-26T18:58:27.352Z,48.01
2023-04-26T19:00:55.234Z,48.34
2023-04-26T19:03:25.232Z,48.43
2023-04-26T19:05:54.506Z,48.44
2023-04-26T19:08:21.983Z,48.57
2023-04-26T19:10:49.866Z,48.88
2023-04-26T19:13:18.615Z,49.17
2023-04-26T19:15:46.572Z,49.29
2023-04-26T19:18:14.168Z,49.40
2023-04-26T19:20:41.811Z,49.43
2023-04-26T19:23:12.443Z,49.60
2023-04-26T19:25:40.099Z,50.04
2023-04-26T19:28:07.757Z,50.05
2023-04-26T19:30:36.320Z,50.55
2023-04-26T19:33:03.984Z,49.98
2023-04-26T19:35:31.545Z,50.05
2023-04-26T19:37:59.056Z,50.54
2023-04-26T19:40:29.356Z,50.24
2023-04-26T19:42:57.402Z,50.51
2023-04-26T19:45:25.049Z,50.79
2023-04-26T19:47:52.583Z,51.08
2023-04-26T19:50:20.307Z,50.74
2023-04-26T19:52:48.017Z,51.03
2023-04-26T19:55:15.650Z,51.20
2023-04-26T19:57:44.764Z,50.86
2023-04-26T20:00:13.316Z,51.07
2023-04-26T20:02:40.971Z,51.01
2023-04-26T20:05:10.219Z,51.56
2023-04-26T20:07:37.742Z,54.20
2023-04-26T20:10:06.174Z,53.76
2023-04-26T20:12:34.352Z,54.57
2023-04-26T20:15:03.447Z,55.07
2023-04-26T20:17:30.950Z,55.22
2023-04-26T20:19:58.449Z,55.21
2023-04-26T20:22:26.444Z,56.45
2023-04-26T20:24:53.978Z,56.45
2023-04-26T20:27:21.490Z,56.98
2023-04-26T20:29:49.008Z,57.10
2023-04-26T20:32:18.018Z,58.07
2023-04-26T20:34:45.531Z,58.19
2023-04-26T20:37:13.662Z,58.40
2023-04-26T20:39:41.673Z,59.25
2023-04-26T20:42:09.607Z,60.34
2023-04-26T20:44:37.173Z,60.49
2023-04-26T20:47:05.052Z,61.52
2023-04-26T20:49:33.857Z,61.09
2023-04-26T20:52:01.338Z,61.47
2023-04-26T20:54:28.869Z,61.80
2023-04-26T20:56:56.477Z,62.19
2023-04-26T20:59:25.242Z,61.76
2023-04-26T21:01:53.815Z,62.52
2023-04-26T21:04:21.690Z,63.02
2023-04-26T21:06:51.090Z,62.08
2023-04-26T21:09:18.641Z,62.16
2023-04-26T21:11:46.185Z,61.94
2023-04-26T21:14:14.553Z,61.03
2023-04-26T21:16:42.170Z,61.61
2023-04-26T21:19:09.827Z,62.79
2023-04-26T21:21:37.489Z,63.33
2023-04-26T21:24:06.662Z,62.92
2023-04-26T21:26:34.153Z,62.53
2023-04-26T21:29:01.744Z,61.46
2023-04-26T21:31:29.294Z,61.48
2023-04-26T21:33:56.867Z,62.08
2023-04-26T21:36:24.523Z,62.65
2023-04-26T21:38:52.738Z,63.31
2023-04-26T21:41:22.603Z,63.66
2023-04-26T21:43:50.737Z,63.82
2023-04-26T21:46:18.244Z,63.20
2023-04-26T21:48:45.812Z,62.87
2023-04-26T21:51:13.307Z,62.80
2023-04-26T21:53:41.011Z,63.33
2023-04-26T21:56:08.850Z,63.37
2023-04-26T21:58:37.695Z,63.40
2023-04-26T22:01:09.799Z,65.04
2023-04-26T22:03:37.705Z,65.47
2023-04-26T22:06:06.189Z,66.29
2023-04-26T22:08:33.809Z,65.92
2023-04-26T22:11:01.731Z,66.05
2023-04-26T22:13:29.278Z,65.96
2023-04-26T22:15:58.180Z,66.15
2023-04-26T22:18:26.419Z,66.50
2023-04-26T22:20:54.469Z,65.33
2023-04-26T22:23:21.963Z,66.15
2023-04-26T22:25:49.462Z,65.83
2023-04-26T22:28:17.003Z,66.73
2023-04-26T22:30:44.758Z,66.78
2023-04-26T22:33:13.727Z,66.47
2023-04-26T22:35:41.586Z,66.87
2023-04-26T22:38:09.148Z,67.26
2023-04-26T22:40:36.678Z,67.47
2023-04-26T22:43:04.281Z,67.15
2023-04-26T22:45:31.823Z,66.60
2023-04-26T22:47:59.474Z,66.50
2023-04-26T22:50:28.347Z,66.26
2023-04-26T22:52:56.009Z,66.53
2023-04-26T22:55:23.668Z,66.50
2023-04-26T22:57:51.295Z,65.80
2023-04-26T23:00:19.919Z,65.97
2023-04-26T23:02:47.539Z,65.45
2023-04-26T23:05:15.075Z,65.86
2023-04-26T23:07:43.940Z,66.22
2023-04-26T23:10:11.982Z,67.35
2023-04-26T23:12:40.655Z,66.80
2023-04-26T23:15:09.118Z,66.78
2023-04-26T23:17:36.851Z,67.37
2023-04-26T23:20:11.933Z,67.47
2023-04-26T23:22:40.367Z,66.58
2023-04-26T23:25:10.132Z,67.12
2023-04-26T23:27:37.914Z,67.48
2023-04-26T23:30:06.311Z,68.50
2023-04-26T23:32:33.999Z,68.52
2023-04-26T23:35:01.598Z,68.27
2023-04-26T23:37:30.077Z,68.05
2023-04-26T23:39:57.600Z,69.59
2023-04-26T23:42:26.471Z,68.87
2023-04-26T23:44:53.962Z,69.63
2023-04-26T23:47:21.450Z,69.19
2023-04-26T23:49:48.906Z,68.88
2023-04-26T23:52:16.388Z,68.71
2023-04-26T23:54:43.872Z,68.74
2023-04-26T23:57:11.806Z,68.53
2023-04-26T23:59:40.609Z,69.02
